Baltic Frost — 9HA2868 — position and weather

sailwx.info

Track history (hours):
 
Tides and Currents Weather Stations Pressure Air Temp Water Temp Dewpoint Dewpoint Depression Visibility Wind Speed Wind Dir Waves Ship Positions

Baltic Frost

Last reported at 2014-Oct-30 12:33 UTC. Time now 2014-Oct-30 12:58 UTC.
Position N 57°48' E 010°24'.

Length 182 m; draft 11.4 m.

Type: Ship. MMSI: 256495000.

Date/timePositionNaut miles runAvg speedWind from/ knotsBaromVisibWave heightAir tempDewpointWater temp
2014-Oct-30 12:33N 57°48' E 010°24'1313.5
2014-Oct-30 11:33N 57°44' E 009°60'2813.6
2014-Oct-30 09:32N 57°34' E 009°12'1313.6
2014-Oct-30 08:32N 57°26' E 008°51'17113.2
2014-Oct-29 19:33N 55°06' E 005°54'1313.1
2014-Oct-29 18:33N 54°55' E 005°41'4413.1
2014-Oct-29 15:11N 54°16' E 005°04'813.1
2014-Oct-29 14:32N 54°09' E 004°57'13510.3
2014-Oct-29 01:30N 52°04' E 003°34'1212.9
2014-Oct-29 00:33N 52°02' E 003°53'1211.5
2014-Oct-28 23:33N 51°57' E 004°10'7 7.0
2014-Oct-28 22:33N 51°53' E 004°19'0 0.0
2014-Oct-28 21:33N 51°53' E 004°19'0 0.0
2014-Oct-28 20:33N 51°53' E 004°19'0 0.0
2014-Oct-28 19:32N 51°53' E 004°19'0 0.0
2014-Oct-28 18:32N 51°53' E 004°19'0 0.0
2014-Oct-28 17:31N 51°53' E 004°19'0 0.0
2014-Oct-28 16:31N 51°53' E 004°19'0 0.0
2014-Oct-28 15:33N 51°53' E 004°19'0 0.0
2014-Oct-28 14:33N 51°53' E 004°19'0 0.0
2014-Oct-28 13:33N 51°53' E 004°19'0 0.0
2014-Oct-28 12:32N 51°53' E 004°19'0 0.0
2014-Oct-28 11:32N 51°53' E 004°19'0 0.0
2014-Oct-28 10:31N 51°53' E 004°19'0 0.0
2014-Oct-28 09:31N 51°53' E 004°19'0 0.0
2014-Oct-28 08:30N 51°53' E 004°19'0 0.0
2014-Oct-28 07:33N 51°53' E 004°19'0 0.0
2014-Oct-28 06:33N 51°53' E 004°19'0 0.0
2014-Oct-28 05:29N 51°53' E 004°19'0 0.0
2014-Oct-28 04:32N 51°53' E 004°19'0 0.0
2014-Oct-28 03:31N 51°53' E 004°19'0 0.0
2014-Oct-28 02:31N 51°53' E 004°19'0 0.0
2014-Oct-28 01:33N 51°53' E 004°19'0 0.0
2014-Oct-28 00:33N 51°53' E 004°19'0 0.0
2014-Oct-27 23:33N 51°53' E 004°19'0 0.0
2014-Oct-27 22:32N 51°53' E 004°19'0 0.0
2014-Oct-27 21:29N 51°53' E 004°19'0 0.0
2014-Oct-27 20:31N 51°53' E 004°19'0 0.0
2014-Oct-27 19:31N 51°53' E 004°19'0 0.0
2014-Oct-27 18:33N 51°53' E 004°19'0 0.0
2014-Oct-27 17:33N 51°53' E 004°19'0 0.0
2014-Oct-27 16:32N 51°53' E 004°19'0 0.0
2014-Oct-27 15:33N 51°53' E 004°19'0 0.0
2014-Oct-27 14:32N 51°53' E 004°19'0 0.0
2014-Oct-27 13:28N 51°53' E 004°19'0 0.0
2014-Oct-27 12:31N 51°53' E 004°19'0 0.0
2014-Oct-27 11:33N 51°53' E 004°19'0 0.0
2014-Oct-27 10:33N 51°53' E 004°19'0 0.0
2014-Oct-27 09:32N 51°53' E 004°19'0 0.0
2014-Oct-27 08:32N 51°53' E 004°19'0 0.0
2014-Oct-27 07:32N 51°53' E 004°19'0 0.0
2014-Oct-27 06:33N 51°53' E 004°19'0 0.1
2014-Oct-27 05:33N 51°53' E 004°19'7 6.5
2014-Oct-27 04:33N 51°57' E 004°11'2 1.6
2014-Oct-27 03:34N 51°58' E 004°08'3 3.2
2014-Oct-27 02:33N 51°56' E 004°12'0 0.0
2014-Oct-27 01:29N 51°56' E 004°12'0 0.0
2014-Oct-27 00:32N 51°56' E 004°12'0 0.0
2014-Oct-26 23:31N 51°56' E 004°12'0 0.0
2014-Oct-26 22:31N 51°56' E 004°12'0 0.0
2014-Oct-26 21:34N 51°56' E 004°12'0 0.0
2014-Oct-26 20:33N 51°56' E 004°12'0 0.0
2014-Oct-26 19:30N 51°56' E 004°12'0 0.0
2014-Oct-26 18:32N 51°56' E 004°12'0 0.0
2014-Oct-26 17:32N 51°56' E 004°12'0 0.0
2014-Oct-26 16:31N 51°56' E 004°12'0 0.0
2014-Oct-26 15:28N 51°56' E 004°12'0 0.0
2014-Oct-26 14:33N 51°56' E 004°12'0 0.0
2014-Oct-26 13:27N 51°56' E 004°12'0 0.0
2014-Oct-26 12:33N 51°56' E 004°12'0 0.0
2014-Oct-26 11:32N 51°56' E 004°12'0 0.0
2014-Oct-26 10:20N 51°56' E 004°12'0 0.0
2014-Oct-26 09:31N 51°56' E 004°12'0 0.0
2014-Oct-26 08:31N 51°56' E 004°12'0 0.0
2014-Oct-26 07:33N 51°56' E 004°12'0 0.0
2014-Oct-26 06:31N 51°56' E 004°12'0 0.0
2014-Oct-26 05:30N 51°56' E 004°12'0 0.0
2014-Oct-26 04:32N 51°56' E 004°12'0 0.0
2014-Oct-26 03:29N 51°56' E 004°12'0 0.0
2014-Oct-26 02:31N 51°56' E 004°12'0 0.0
2014-Oct-26 01:33N 51°56' E 004°12'0 0.3
2014-Oct-26 00:33N 51°56' E 004°12'8 8.5
2014-Oct-25 23:33N 51°60' E 003°60'10 9.7
2014-Oct-25 22:33N 51°59' E 003°44'9 1.4
2014-Oct-25 16:12N 51°55' E 003°31'4813.1
2014-Oct-25 12:31N 51°34' E 002°21'1414.3
2014-Oct-25 11:33N 51°22' E 002°10'1716.8
2014-Oct-25 10:34N 51°09' E 001°53'9 8.8
2014-Oct-25 09:33N 51°04' E 001°42'1111.2
2014-Oct-25 08:33N 50°56' E 001°29'1110.8
2014-Oct-25 07:33N 50°45' E 001°23'8911.2
2014-Oct-24 23:33N 49°39' W 000°11'1111.4
2014-Oct-24 22:33N 49°29' W 000°04'1110.7
2014-Oct-24 21:33N 49°26' E 000°12'10 9.7
2014-Oct-24 20:33N 49°28' E 000°26'4 3.7
2014-Oct-24 19:26N 49°28' E 000°33'0 0.0
2014-Oct-24 18:31N 49°28' E 000°33'0 0.0
2014-Oct-24 17:19N 49°28' E 000°33'0 0.0
2014-Oct-24 16:24N 49°28' E 000°33'0 0.0
2014-Oct-24 15:12N 49°28' E 000°33'0 0.0
2014-Oct-24 14:29N 49°28' E 000°33'0 0.0
2014-Oct-24 13:29N 49°28' E 000°33'0 0.0
2014-Oct-24 12:29N 49°28' E 000°33'0 0.0
2014-Oct-24 11:16N 49°28' E 000°33'0 0.0
2014-Oct-24 10:28N 49°28' E 000°33'0 0.0
2014-Oct-24 09:33N 49°28' E 000°33'0 0.0
2014-Oct-24 08:33N 49°28' E 000°33'0 0.0
2014-Oct-24 07:32N 49°28' E 000°33'0 0.0
2014-Oct-24 06:32N 49°28' E 000°33'0 0.0
2014-Oct-24 05:32N 49°28' E 000°33'0 0.0
2014-Oct-24 04:31N 49°28' E 000°33'0 0.0
2014-Oct-24 03:31N 49°28' E 000°33'0 0.0
2014-Oct-24 02:12N 49°28' E 000°33'0 0.0
2014-Oct-24 01:24N 49°28' E 000°33'0 0.0
2014-Oct-24 00:08N 49°28' E 000°33'0 0.0
2014-Oct-23 23:29N 49°28' E 000°33'0 0.0
2014-Oct-23 22:29N 49°28' E 000°33'0 0.0
2014-Oct-23 21:25N 49°28' E 000°33'0 0.0
2014-Oct-23 20:22N 49°28' E 000°33'0 0.0
2014-Oct-23 19:21N 49°28' E 000°33'0 0.0
2014-Oct-23 18:24N 49°28' E 000°33'0 0.0
2014-Oct-23 17:29N 49°28' E 000°33'0 0.0
2014-Oct-23 16:26N 49°28' E 000°33'0 0.0
2014-Oct-23 15:25N 49°28' E 000°33'0 0.0
2014-Oct-23 14:19N 49°28' E 000°33'0 0.0
2014-Oct-23 13:25N 49°28' E 000°33'0 0.0
2014-Oct-23 12:30N 49°28' E 000°33'0 0.0
2014-Oct-23 11:15N 49°28' E 000°33'0 0.0
2014-Oct-23 10:26N 49°28' E 000°33'0 0.0
2014-Oct-23 09:23N 49°28' E 000°33'0 0.0
2014-Oct-23 08:28N 49°28' E 000°33'0 0.0
2014-Oct-23 07:28N 49°28' E 000°33'0 0.0
2014-Oct-23 06:22N 49°28' E 000°33'0 0.0
2014-Oct-23 05:33N 49°28' E 000°33'0 0.0
2014-Oct-23 04:27N 49°28' E 000°33'0 0.0
2014-Oct-23 03:32N 49°28' E 000°33'0 0.0
2014-Oct-23 02:32N 49°28' E 000°33'0 0.0
2014-Oct-23 01:31N 49°28' E 000°33'0 0.0
2014-Oct-23 00:31N 49°28' E 000°33'0 0.0
2014-Oct-22 23:33N 49°28' E 000°33'0 0.0
2014-Oct-22 22:33N 49°28' E 000°33'0 0.4
2014-Oct-22 21:33N 49°28' E 000°32'1010.1
2014-Oct-22 20:33N 49°26' E 000°17'1212.1
2014-Oct-22 19:33N 49°28' W 000°01'4 4.0
2014-Oct-22 18:33N 49°28' W 000°07'0 0.0
2014-Oct-22 17:33N 49°28' W 000°07'0 0.0
2014-Oct-22 16:32N 49°28' W 000°07'0 0.0
2014-Oct-22 15:32N 49°28' W 000°07'0 0.1
2014-Oct-22 14:32N 49°28' W 000°08'0 0.0
2014-Oct-22 13:31N 49°28' W 000°08'0 0.0
2014-Oct-22 12:31N 49°28' W 000°08'0 0.0
2014-Oct-22 11:33N 49°28' W 000°07'0 0.0
2014-Oct-22 10:33N 49°28' W 000°07'0 0.0
2014-Oct-22 09:29N 49°28' W 000°07'0 0.0
2014-Oct-22 08:34N 49°28' W 000°07'1 1.3
2014-Oct-22 07:33N 49°29' W 000°08'8 7.8
2014-Oct-22 06:33N 49°37' W 000°11'1311.4
2014-Oct-22 05:27N 49°50' W 000°10'85 9.6
2014-Oct-21 20:33N 50°57' E 001°12'1111.2
2014-Oct-21 19:33N 51°04' E 001°26'1312.8
2014-Oct-21 18:33N 51°12' E 001°42'1312.7
2014-Oct-21 17:33N 51°22' E 001°53'1111.2
2014-Oct-21 16:34N 51°31' E 002°04'1110.6
2014-Oct-21 15:33N 51°39' E 002°15'1110.2
2014-Oct-21 14:27N 51°48' E 002°27'9 8.8
2014-Oct-21 13:27N 51°53' E 002°39'7 6.7
2014-Oct-21 12:26N 51°51' E 002°49'8 9.1
2014-Oct-21 11:33N 51°48' E 003°01'2 1.7
2014-Oct-21 10:32N 51°46' E 003°03'136 9.4
2014-Oct-20 20:08N 53°56' E 004°09'  
Track history (hours):
 
Tides and Currents Weather Stations Pressure Air Temp Water Temp Dewpoint Dewpoint Depression Visibility Wind Speed Wind Dir Waves Ship Positions

Baltic Frost

Last reported at 2014-Oct-30 12:33 UTC. Time now 2014-Oct-30 12:58 UTC.
Position N 57°48' E 010°24'.

Length 182 m; draft 11.4 m.

Type: Ship. MMSI: 256495000.

Date/timePositionNaut miles runAvg speedWind from/ knotsBaromVisibWave heightAir tempDewpointWater temp
2014-Oct-30 12:33N 57°48' E 010°24'1313.5
2014-Oct-30 11:33N 57°44' E 009°60'2813.6
2014-Oct-30 09:32N 57°34' E 009°12'1313.6
2014-Oct-30 08:32N 57°26' E 008°51'17113.2
2014-Oct-29 19:33N 55°06' E 005°54'1313.1
2014-Oct-29 18:33N 54°55' E 005°41'4413.1
2014-Oct-29 15:11N 54°16' E 005°04'813.1
2014-Oct-29 14:32N 54°09' E 004°57'13510.3
2014-Oct-29 01:30N 52°04' E 003°34'1212.9
2014-Oct-29 00:33N 52°02' E 003°53'1211.5
2014-Oct-28 23:33N 51°57' E 004°10'7 7.0
2014-Oct-28 22:33N 51°53' E 004°19'0 0.0
2014-Oct-28 21:33N 51°53' E 004°19'0 0.0
2014-Oct-28 20:33N 51°53' E 004°19'0 0.0
2014-Oct-28 19:32N 51°53' E 004°19'0 0.0
2014-Oct-28 18:32N 51°53' E 004°19'0 0.0
2014-Oct-28 17:31N 51°53' E 004°19'0 0.0
2014-Oct-28 16:31N 51°53' E 004°19'0 0.0
2014-Oct-28 15:33N 51°53' E 004°19'0 0.0
2014-Oct-28 14:33N 51°53' E 004°19'0 0.0
2014-Oct-28 13:33N 51°53' E 004°19'0 0.0
2014-Oct-28 12:32N 51°53' E 004°19'0 0.0
2014-Oct-28 11:32N 51°53' E 004°19'0 0.0
2014-Oct-28 10:31N 51°53' E 004°19'0 0.0
2014-Oct-28 09:31N 51°53' E 004°19'0 0.0
2014-Oct-28 08:30N 51°53' E 004°19'0 0.0
2014-Oct-28 07:33N 51°53' E 004°19'0 0.0
2014-Oct-28 06:33N 51°53' E 004°19'0 0.0
2014-Oct-28 05:29N 51°53' E 004°19'0 0.0
2014-Oct-28 04:32N 51°53' E 004°19'0 0.0
2014-Oct-28 03:31N 51°53' E 004°19'0 0.0
2014-Oct-28 02:31N 51°53' E 004°19'0 0.0
2014-Oct-28 01:33N 51°53' E 004°19'0 0.0
2014-Oct-28 00:33N 51°53' E 004°19'0 0.0
2014-Oct-27 23:33N 51°53' E 004°19'0 0.0
2014-Oct-27 22:32N 51°53' E 004°19'0 0.0
2014-Oct-27 21:29N 51°53' E 004°19'0 0.0
2014-Oct-27 20:31N 51°53' E 004°19'0 0.0
2014-Oct-27 19:31N 51°53' E 004°19'0 0.0
2014-Oct-27 18:33N 51°53' E 004°19'0 0.0
2014-Oct-27 17:33N 51°53' E 004°19'0 0.0
2014-Oct-27 16:32N 51°53' E 004°19'0 0.0
2014-Oct-27 15:33N 51°53' E 004°19'0 0.0
2014-Oct-27 14:32N 51°53' E 004°19'0 0.0
2014-Oct-27 13:28N 51°53' E 004°19'0 0.0
2014-Oct-27 12:31N 51°53' E 004°19'0 0.0
2014-Oct-27 11:33N 51°53' E 004°19'0 0.0
2014-Oct-27 10:33N 51°53' E 004°19'0 0.0
2014-Oct-27 09:32N 51°53' E 004°19'0 0.0
2014-Oct-27 08:32N 51°53' E 004°19'0 0.0
2014-Oct-27 07:32N 51°53' E 004°19'0 0.0
2014-Oct-27 06:33N 51°53' E 004°19'0 0.1
2014-Oct-27 05:33N 51°53' E 004°19'7 6.5
2014-Oct-27 04:33N 51°57' E 004°11'2 1.6
2014-Oct-27 03:34N 51°58' E 004°08'3 3.2
2014-Oct-27 02:33N 51°56' E 004°12'0 0.0
2014-Oct-27 01:29N 51°56' E 004°12'0 0.0
2014-Oct-27 00:32N 51°56' E 004°12'0 0.0
2014-Oct-26 23:31N 51°56' E 004°12'0 0.0
2014-Oct-26 22:31N 51°56' E 004°12'0 0.0
2014-Oct-26 21:34N 51°56' E 004°12'0 0.0
2014-Oct-26 20:33N 51°56' E 004°12'0 0.0
2014-Oct-26 19:30N 51°56' E 004°12'0 0.0
2014-Oct-26 18:32N 51°56' E 004°12'0 0.0
2014-Oct-26 17:32N 51°56' E 004°12'0 0.0
2014-Oct-26 16:31N 51°56' E 004°12'0 0.0
2014-Oct-26 15:28N 51°56' E 004°12'0 0.0
2014-Oct-26 14:33N 51°56' E 004°12'0 0.0
2014-Oct-26 13:27N 51°56' E 004°12'0 0.0
2014-Oct-26 12:33N 51°56' E 004°12'0 0.0
2014-Oct-26 11:32N 51°56' E 004°12'0 0.0
2014-Oct-26 10:20N 51°56' E 004°12'0 0.0
2014-Oct-26 09:31N 51°56' E 004°12'0 0.0
2014-Oct-26 08:31N 51°56' E 004°12'0 0.0
2014-Oct-26 07:33N 51°56' E 004°12'0 0.0
2014-Oct-26 06:31N 51°56' E 004°12'0 0.0
2014-Oct-26 05:30N 51°56' E 004°12'0 0.0
2014-Oct-26 04:32N 51°56' E 004°12'0 0.0
2014-Oct-26 03:29N 51°56' E 004°12'0 0.0
2014-Oct-26 02:31N 51°56' E 004°12'0 0.0
2014-Oct-26 01:33N 51°56' E 004°12'0 0.3
2014-Oct-26 00:33N 51°56' E 004°12'8 8.5
2014-Oct-25 23:33N 51°60' E 003°60'10 9.7
2014-Oct-25 22:33N 51°59' E 003°44'9 1.4
2014-Oct-25 16:12N 51°55' E 003°31'4813.1
2014-Oct-25 12:31N 51°34' E 002°21'1414.3
2014-Oct-25 11:33N 51°22' E 002°10'1716.8
2014-Oct-25 10:34N 51°09' E 001°53'9 8.8
2014-Oct-25 09:33N 51°04' E 001°42'1111.2
2014-Oct-25 08:33N 50°56' E 001°29'1110.8
2014-Oct-25 07:33N 50°45' E 001°23'8911.2
2014-Oct-24 23:33N 49°39' W 000°11'1111.4
2014-Oct-24 22:33N 49°29' W 000°04'1110.7
2014-Oct-24 21:33N 49°26' E 000°12'10 9.7
2014-Oct-24 20:33N 49°28' E 000°26'4 3.7
2014-Oct-24 19:26N 49°28' E 000°33'0 0.0
2014-Oct-24 18:31N 49°28' E 000°33'0 0.0
2014-Oct-24 17:19N 49°28' E 000°33'0 0.0
2014-Oct-24 16:24N 49°28' E 000°33'0 0.0
2014-Oct-24 15:12N 49°28' E 000°33'0 0.0
2014-Oct-24 14:29N 49°28' E 000°33'0 0.0
2014-Oct-24 13:29N 49°28' E 000°33'0 0.0
2014-Oct-24 12:29N 49°28' E 000°33'0 0.0
2014-Oct-24 11:16N 49°28' E 000°33'0 0.0
2014-Oct-24 10:28N 49°28' E 000°33'0 0.0
2014-Oct-24 09:33N 49°28' E 000°33'0 0.0
2014-Oct-24 08:33N 49°28' E 000°33'0 0.0
2014-Oct-24 07:32N 49°28' E 000°33'0 0.0
2014-Oct-24 06:32N 49°28' E 000°33'0 0.0
2014-Oct-24 05:32N 49°28' E 000°33'0 0.0
2014-Oct-24 04:31N 49°28' E 000°33'0 0.0
2014-Oct-24 03:31N 49°28' E 000°33'0 0.0
2014-Oct-24 02:12N 49°28' E 000°33'0 0.0
2014-Oct-24 01:24N 49°28' E 000°33'0 0.0
2014-Oct-24 00:08N 49°28' E 000°33'0 0.0
2014-Oct-23 23:29N 49°28' E 000°33'0 0.0
2014-Oct-23 22:29N 49°28' E 000°33'0 0.0
2014-Oct-23 21:25N 49°28' E 000°33'0 0.0
2014-Oct-23 20:22N 49°28' E 000°33'0 0.0
2014-Oct-23 19:21N 49°28' E 000°33'0 0.0
2014-Oct-23 18:24N 49°28' E 000°33'0 0.0
2014-Oct-23 17:29N 49°28' E 000°33'0 0.0
2014-Oct-23 16:26N 49°28' E 000°33'0 0.0
2014-Oct-23 15:25N 49°28' E 000°33'0 0.0
2014-Oct-23 14:19N 49°28' E 000°33'0 0.0
2014-Oct-23 13:25N 49°28' E 000°33'0 0.0
2014-Oct-23 12:30N 49°28' E 000°33'0 0.0
2014-Oct-23 11:15N 49°28' E 000°33'0 0.0
2014-Oct-23 10:26N 49°28' E 000°33'0 0.0
2014-Oct-23 09:23N 49°28' E 000°33'0 0.0
2014-Oct-23 08:28N 49°28' E 000°33'0 0.0
2014-Oct-23 07:28N 49°28' E 000°33'0 0.0
2014-Oct-23 06:22N 49°28' E 000°33'0 0.0
2014-Oct-23 05:33N 49°28' E 000°33'0 0.0
2014-Oct-23 04:27N 49°28' E 000°33'0 0.0
2014-Oct-23 03:32N 49°28' E 000°33'0 0.0
2014-Oct-23 02:32N 49°28' E 000°33'0 0.0
2014-Oct-23 01:31N 49°28' E 000°33'0 0.0
2014-Oct-23 00:31N 49°28' E 000°33'0 0.0
2014-Oct-22 23:33N 49°28' E 000°33'0 0.0
2014-Oct-22 22:33N 49°28' E 000°33'0 0.4
2014-Oct-22 21:33N 49°28' E 000°32'1010.1
2014-Oct-22 20:33N 49°26' E 000°17'1212.1
2014-Oct-22 19:33N 49°28' W 000°01'4 4.0
2014-Oct-22 18:33N 49°28' W 000°07'0 0.0
2014-Oct-22 17:33N 49°28' W 000°07'0 0.0
2014-Oct-22 16:32N 49°28' W 000°07'0 0.0
2014-Oct-22 15:32N 49°28' W 000°07'0 0.1
2014-Oct-22 14:32N 49°28' W 000°08'0 0.0
2014-Oct-22 13:31N 49°28' W 000°08'0 0.0
2014-Oct-22 12:31N 49°28' W 000°08'0 0.0
2014-Oct-22 11:33N 49°28' W 000°07'0 0.0
2014-Oct-22 10:33N 49°28' W 000°07'0 0.0
2014-Oct-22 09:29N 49°28' W 000°07'0 0.0
2014-Oct-22 08:34N 49°28' W 000°07'1 1.3
2014-Oct-22 07:33N 49°29' W 000°08'8 7.8
2014-Oct-22 06:33N 49°37' W 000°11'1311.4
2014-Oct-22 05:27N 49°50' W 000°10'85 9.6
2014-Oct-21 20:33N 50°57' E 001°12'1111.2
2014-Oct-21 19:33N 51°04' E 001°26'1312.8
2014-Oct-21 18:33N 51°12' E 001°42'1312.7
2014-Oct-21 17:33N 51°22' E 001°53'1111.2
2014-Oct-21 16:34N 51°31' E 002°04'1110.6
2014-Oct-21 15:33N 51°39' E 002°15'1110.2
2014-Oct-21 14:27N 51°48' E 002°27'9 8.8
2014-Oct-21 13:27N 51°53' E 002°39'7 6.7
2014-Oct-21 12:26N 51°51' E 002°49'8 9.1
2014-Oct-21 11:33N 51°48' E 003°01'2 1.7
2014-Oct-21 10:32N 51°46' E 003°03'136 9.4
2014-Oct-20 20:08N 53°56' E 004°09'  

Dump ship's entire track history